出雲空港の過去48時間の天気

出雲空港 (Izumo)

現在時刻: 9/19 07:10 JST (9/18 22:10 UTC) 以下の時間は現地時間です。

過去48時間のMETAR気象情報
時間 風向 風速(m/s) 視程 気温(℃) 湿度(%) 気圧(hPa) 天気現象
19 07:00 南東 2 10km以上 20 94 1015
19 06:30 2 10km以上 21 88 1015
19 06:10 2 10km以上 21 88 1014
RJOC 182200Z 14003KT 9999 FEW015 SCT050 20/19 Q1015
RJOC 182130Z 08004KT 050V120 9999 FEW015 SCT025 21/19 Q1015
RJOC 182110Z 09003KT 060V130 9999 FEW015 SCT025 21/19 Q1014 RMK 1CU015 3CU025 A2997